Etusivu
METAR-TAF:

METAR-TAF

Lentoasemat :

Kiirunan lentoasema

Kiruna, Ruotsi

Leveyspiiri: 67-49N, Pituuspiiri: 020-20E, korkeus merenpinnasta: 452 m

Tämänhetkinen sää

Tämä raportti tehtiin 29 minuuttia sitten, kello 23.20 UTC
Tuuli 7 kn lounaasta
Lämpötila -7°C
Kosteus 86%
Ilmanpaine 1032 hPa
Näkyvyys 10 km tai enemmän

METAR: ESNQ 202320Z AUTO 23007KT 9999 NCD M07/M09 Q1032

Aika: 00:49 (23:49 UTC)

Sääennuste

Tämä raportti tehtiin 3 tuntia ja 19 minuuttia sitten, kello 20.30 UTC
Ennuste voimassa 20. päivästä klo 21 UTC - 20. päivään klo 24 UTC
Tuuli 2 kn eri suunnista
Näkyvyys 10 km tai enemmän
ei pilviä alle 1500 m:ssä eikä cumulonimbus-pilviä

TAF: ESNQ 202030Z 2021/2024 VRB02KT CAVOK

Säähavainnot ja -ennusteet yli 4000 lentoasemalta (METAR- ja TAF-raportit).

Käytössä olevat sääasemat on merkitty karttaan keltaisilla ja punaisilla pisteillä.

Aseta hiiri pisteen päälle nähdäksesi sääaseman nimen.

Klikkaa sitten nähdäksesi säähavainnot ja -ennusteet.

Kartan vaihtaminen: klikkaa mustalla rastilla varustettuja vihreitä pisteitä, niin voit zoomata sisään; viivalla varustettua vihreää pistettä, niin voit zoomata ulos tai vihreitä nuolia, niin pääset viereisille kartoille.


METAR-TAF: